createdAt,value
2017-04-26T12:55:09.902Z,7.18
2017-04-26T12:57:37.318Z,7.44
2017-04-26T13:00:04.912Z,7.80
2017-04-26T13:02:31.957Z,7.38
2017-04-26T13:04:59.756Z,7.78
2017-04-26T13:07:27.435Z,8.06
2017-04-26T13:09:55.122Z,8.14
2017-04-26T13:12:22.837Z,7.36
2017-04-26T13:14:49.878Z,7.92
2017-04-26T13:17:18.317Z,8.04
2017-04-26T13:19:45.422Z,7.16
2017-04-26T13:22:14.114Z,9.00
2017-04-26T13:24:42.715Z,9.20
2017-04-26T13:27:10.573Z,8.94
2017-04-26T13:29:38.368Z,9.44
2017-04-26T13:32:05.424Z,8.68
2017-04-26T13:34:32.450Z,9.84
2017-04-26T13:37:00.225Z,8.50
2017-04-26T13:39:28.809Z,9.66
2017-04-26T13:41:57.128Z,9.84
2017-04-26T13:44:24.180Z,9.52
2017-04-26T13:46:51.263Z,8.76
2017-04-26T13:49:18.313Z,10.32
2017-04-26T13:51:45.573Z,9.96
2017-04-26T13:54:13.057Z,9.26
2017-04-26T13:56:40.198Z,10.30
2017-04-26T13:59:07.299Z,11.20
2017-04-26T14:01:34.442Z,10.52
2017-04-26T14:04:02.223Z,10.12
2017-04-26T14:06:29.263Z,10.98
2017-04-26T14:08:56.288Z,11.12
2017-04-26T14:11:23.319Z,11.48
2017-04-26T14:13:50.368Z,11.40
2017-04-26T14:16:17.430Z,11.24
2017-04-26T14:18:45.020Z,11.06
2017-04-26T14:21:12.725Z,11.04
2017-04-26T14:23:39.837Z,10.92
2017-04-26T14:26:07.159Z,10.02
2017-04-26T14:28:35.284Z,10.02
2017-04-26T14:31:03.684Z,12.00
2017-04-26T14:33:32.071Z,10.36
2017-04-26T14:35:59.537Z,10.56
2017-04-26T14:38:26.601Z,10.12
2017-04-26T14:40:54.295Z,9.52
2017-04-26T14:43:21.529Z,10.20
2017-04-26T14:45:48.785Z,11.44
2017-04-26T14:48:16.354Z,10.54
2017-04-26T14:50:43.884Z,10.80
2017-04-26T14:53:12.210Z,9.82
2017-04-26T14:55:39.735Z,10.14
2017-04-26T14:58:08.220Z,10.62
2017-04-26T15:00:36.604Z,11.90
2017-04-26T15:03:03.679Z,12.64
2017-04-26T15:05:30.768Z,12.22
2017-04-26T15:07:57.814Z,12.50
2017-04-26T15:10:25.225Z,13.28
2017-04-26T15:12:52.452Z,14.52
2017-04-26T15:15:19.519Z,10.52
2017-04-26T15:17:46.574Z,11.20
2017-04-26T15:20:14.163Z,10.76
2017-04-26T15:22:41.770Z,10.46
2017-04-26T15:25:09.562Z,10.80
2017-04-26T15:27:37.179Z,8.88
2017-04-26T15:30:04.267Z,10.14
2017-04-26T15:32:31.891Z,10.16
2017-04-26T15:34:59.855Z,10.50
2017-04-26T15:37:28.228Z,9.90
2017-04-26T15:39:57.664Z,11.20
2017-04-26T15:42:25.413Z,10.64
2017-04-26T15:44:53.809Z,10.88
2017-04-26T15:47:21.184Z,12.00
2017-04-26T15:49:48.298Z,11.02
2017-04-26T15:52:15.397Z,11.32
2017-04-26T15:54:42.521Z,10.68
2017-04-26T15:57:10.304Z,10.62
2017-04-26T15:59:37.418Z,10.98
2017-04-26T16:02:04.449Z,11.96
2017-04-26T16:04:31.476Z,9.96
2017-04-26T16:06:58.547Z,11.82
2017-04-26T16:09:25.591Z,12.00
2017-04-26T16:11:52.668Z,10.60
2017-04-26T16:14:21.888Z,11.24
2017-04-26T16:16:48.992Z,11.56
2017-04-26T16:19:17.064Z,12.08
2017-04-26T16:21:44.102Z,11.88
2017-04-26T16:24:11.951Z,12.18
2017-04-26T16:26:39.011Z,11.16
2017-04-26T16:29:08.799Z,13.36
2017-04-26T16:31:35.965Z,12.44
2017-04-26T16:34:03.068Z,12.54
2017-04-26T16:36:30.243Z,11.68
2017-04-26T16:38:57.260Z,12.48
2017-04-26T16:41:25.163Z,12.20
2017-04-26T16:43:52.228Z,12.70
2017-04-26T16:46:19.621Z,12.56
2017-04-26T16:48:46.684Z,13.08
2017-04-26T16:51:14.582Z,12.94
2017-04-26T16:53:42.247Z,14.66
2017-04-26T16:56:09.804Z,12.46
2017-04-26T16:58:36.858Z,12.28
2017-04-26T17:01:03.921Z,12.58
2017-04-26T17:03:31.006Z,11.98
2017-04-26T17:05:58.089Z,13.14
2017-04-26T17:08:25.218Z,11.94
2017-04-26T17:10:52.263Z,12.54
2017-04-26T17:13:19.288Z,11.46
2017-04-26T17:15:46.396Z,12.12
2017-04-26T17:18:13.493Z,10.68
2017-04-26T17:20:41.141Z,10.98
2017-04-26T17:23:09.521Z,12.10
2017-04-26T17:25:37.740Z,12.38
2017-04-26T17:28:04.902Z,11.92
2017-04-26T17:30:31.933Z,11.72
2017-04-26T17:32:59.026Z,11.96
2017-04-26T17:35:26.073Z,11.74
2017-04-26T17:37:53.124Z,11.40
2017-04-26T17:40:20.383Z,12.74
2017-04-26T17:42:47.990Z,13.30
2017-04-26T17:45:15.455Z,12.08
2017-04-26T17:47:43.666Z,12.42
2017-04-26T17:50:11.507Z,13.10
2017-04-26T17:52:39.792Z,11.66
2017-04-26T17:55:08.067Z,11.66
2017-04-26T17:57:36.095Z,13.10
2017-04-26T18:00:05.416Z,12.44
2017-04-26T18:02:32.499Z,11.94
2017-04-26T18:04:59.562Z,11.56
2017-04-26T18:07:27.359Z,12.58
2017-04-26T18:09:54.489Z,12.62
2017-04-26T18:12:22.217Z,12.86
2017-04-26T18:14:49.571Z,13.02
2017-04-26T18:17:16.673Z,13.92
2017-04-26T18:19:44.506Z,13.14
2017-04-26T18:22:11.612Z,13.50
2017-04-26T18:24:38.652Z,11.80
2017-04-26T18:27:06.475Z,12.54
2017-04-26T18:29:33.522Z,13.22
2017-04-26T18:32:00.547Z,15.16
2017-04-26T18:34:27.642Z,14.62
2017-04-26T18:36:54.804Z,16.26
2017-04-26T18:39:21.883Z,14.74
2017-04-26T18:41:49.696Z,16.58
2017-04-26T18:44:16.731Z,21.80
2017-04-26T18:46:43.788Z,21.84
2017-04-26T18:49:10.854Z,21.20
2017-04-26T18:51:37.910Z,15.74
2017-04-26T18:54:05.001Z,16.16
2017-04-26T18:56:32.079Z,17.00
2017-04-26T18:58:59.213Z,19.74
2017-04-26T19:01:26.273Z,19.90
2017-04-26T19:03:53.317Z,17.58
2017-04-26T19:06:20.528Z,22.10
2017-04-26T19:08:47.729Z,31.38
2017-04-26T19:11:15.381Z,20.26
2017-04-26T19:13:42.476Z,18.08
2017-04-26T19:16:10.338Z,17.46
2017-04-26T19:18:38.120Z,16.10
2017-04-26T19:21:05.933Z,16.86
2017-04-26T19:23:33.779Z,18.50
2017-04-26T19:26:01.350Z,18.30
2017-04-26T19:28:28.390Z,19.88
2017-04-26T19:30:55.448Z,20.27
2017-04-26T19:33:22.587Z,20.02
2017-04-26T19:35:50.401Z,20.86
2017-04-26T19:38:17.469Z,19.62
2017-04-26T19:40:44.531Z,19.74
2017-04-26T19:43:11.577Z,22.82
2017-04-26T19:45:40.087Z,32.44
2017-04-26T19:48:07.128Z,22.40
2017-04-26T19:50:34.163Z,19.00
2017-04-26T19:53:01.293Z,17.66
2017-04-26T19:55:28.338Z,19.12
2017-04-26T19:57:55.379Z,21.60
2017-04-26T20:00:22.401Z,21.72
2017-04-26T20:02:49.457Z,21.60
2017-04-26T20:05:16.520Z,26.04
2017-04-26T20:07:44.612Z,25.30
2017-04-26T20:10:11.690Z,24.54
2017-04-26T20:12:38.713Z,23.30
2017-04-26T20:15:06.470Z,24.22
2017-04-26T20:17:34.249Z,21.82
2017-04-26T20:20:02.051Z,18.00
2017-04-26T20:22:29.162Z,17.36
2017-04-26T20:24:57.017Z,19.08
2017-04-26T20:27:24.096Z,19.70
2017-04-26T20:29:51.954Z,18.40
2017-04-26T20:32:19.790Z,23.13
2017-04-26T20:34:46.880Z,30.58
2017-04-26T20:37:14.822Z,22.48
2017-04-26T20:39:41.949Z,21.05
2017-04-26T20:42:09.044Z,20.62
2017-04-26T20:44:36.136Z,21.53
2017-04-26T20:47:03.948Z,23.26
2017-04-26T20:49:31.023Z,20.95
2017-04-26T20:51:58.089Z,20.40
2017-04-26T20:54:25.295Z,19.27
2017-04-26T20:56:52.381Z,20.02
2017-04-26T20:59:19.535Z,20.15
2017-04-26T21:01:46.605Z,20.57
2017-04-26T21:04:13.652Z,23.60
2017-04-26T21:06:40.745Z,20.88
2017-04-26T21:09:07.830Z,23.56
2017-04-26T21:11:34.967Z,21.80
2017-04-26T21:14:02.080Z,20.12
2017-04-26T21:16:29.937Z,20.43
2017-04-26T21:18:57.016Z,20.18
2017-04-26T21:21:24.820Z,20.80
2017-04-26T21:23:51.911Z,19.42
2017-04-26T21:26:18.955Z,19.97
2017-04-26T21:28:46.004Z,20.50
2017-04-26T21:31:13.092Z,25.04
2017-04-26T21:33:40.255Z,22.20
2017-04-26T21:36:08.583Z,20.28
2017-04-26T21:38:35.673Z,19.92
2017-04-26T21:41:02.903Z,21.85
2017-04-26T21:43:29.957Z,20.36
2017-04-26T21:45:57.138Z,20.65
2017-04-26T21:48:24.426Z,21.85
2017-04-26T21:50:51.503Z,22.52
2017-04-26T21:53:18.584Z,23.40
2017-04-26T21:55:45.655Z,23.90
2017-04-26T21:58:12.774Z,21.86
2017-04-26T22:00:39.956Z,24.96
2017-04-26T22:03:07.032Z,29.28
2017-04-26T22:05:34.932Z,26.38
2017-04-26T22:08:01.999Z,26.45
2017-04-26T22:10:29.176Z,22.92
2017-04-26T22:12:56.239Z,24.38
2017-04-26T22:15:23.416Z,24.62
2017-04-26T22:17:50.536Z,25.66
2017-04-26T22:20:17.615Z,26.80
2017-04-26T22:22:44.835Z,23.82
2017-04-26T22:25:11.954Z,22.72
2017-04-26T22:27:39.803Z,26.58
2017-04-26T22:30:06.862Z,22.16
2017-04-26T22:32:33.923Z,23.08
2017-04-26T22:35:01.736Z,23.06
2017-04-26T22:37:28.812Z,23.40
2017-04-26T22:39:55.898Z,21.82
2017-04-26T22:42:23.011Z,22.78
2017-04-26T22:44:50.127Z,23.22
2017-04-26T22:47:17.156Z,23.83
2017-04-26T22:49:44.955Z,24.65
2017-04-26T22:52:12.044Z,25.87
2017-04-26T22:54:39.112Z,26.13
2017-04-26T22:57:06.204Z,26.55
2017-04-26T22:59:33.984Z,24.92
2017-04-26T23:02:01.064Z,27.77
2017-04-26T23:04:28.124Z,30.20
2017-04-26T23:06:55.163Z,22.43
2017-04-26T23:09:22.300Z,24.13
2017-04-26T23:11:49.420Z,21.38
2017-04-26T23:14:16.497Z,23.27
2017-04-26T23:16:44.521Z,23.28
2017-04-26T23:19:11.669Z,23.60
2017-04-26T23:21:38.725Z,23.57
2017-04-26T23:24:05.965Z,22.68
2017-04-26T23:26:33.053Z,22.77
2017-04-26T23:29:00.149Z,23.48
2017-04-26T23:31:27.203Z,25.30
2017-04-26T23:33:54.240Z,22.47
2017-04-26T23:36:29.163Z,22.67
2017-04-26T23:38:56.228Z,22.55
2017-04-26T23:41:24.058Z,22.58
2017-04-26T23:43:51.148Z,25.18
2017-04-26T23:46:18.968Z,25.75
2017-04-26T23:48:46.067Z,27.92
2017-04-26T23:51:13.925Z,27.65
2017-04-26T23:53:40.971Z,29.13
2017-04-26T23:56:08.052Z,29.97
2017-04-26T23:58:35.898Z,28.77
